PKWA TAF

79.7 °F / 26.5 °C
ENE at 17 MPH
74%
71.1°F / 21.7 °C
29.73" (1006 mb)
10 mile(s)
partly cloudy
2022.01.18 1600 UTC

PKWA TAF

2022/01/18 12:26
TAF PKWA 181120Z 1812/1912 06016KT P6SM FEW020 SCT060